CheckWX is a tool to help pilots better visualize weather data.  It is not intended as a substitute for an official pre-flight weather briefing.

04:46:06 UTC

VOHS TAF
Rajiv Gandhi International Airport
Hyderabad, India
TAF VOHS 240200Z 2403/2412 16008KT 6000 FEW015 BECMG 2406/2408 08008KT SCT015 SCT025 TEMPO 2409/2418 FEW030CB

Apr-24@
03:00 UTC

Apr-24 @ 03:00 UTC

Apr-24@
06:00 UTC

Apr-24 @ 06:00 UTC

TAF VOHS 240200Z 2403/2412 16008KT 6000 FEW015
Wind
  • 160° at 8 KTS
Cloud Levels
  • Few at 1,500' AGL

Apr-24@
06:00 UTC

Apr-24 @ 06:00 UTC

Apr-24@
12:00 UTC

Apr-24 @ 12:00 UTC

BECMG 2406/2408 08008KT SCT015 SCT025

Becoming

Becoming Conditions expected by Wed, Apr 24, 2019 @ 08:00 UTC

Wind
  • 080° at 8 KTS
Cloud Levels
  • Scattered at 1,500' AGL
  • Scattered at 2,500' AGL

Apr-24@
09:00 UTC

Apr-24 @ 09:00 UTC

Apr-24@
18:00 UTC

Apr-24 @ 18:00 UTC

TEMPO 2409/2418 FEW030CB

Temporary

Temporary Changes expected for less than half the time period

Cloud Levels
  • Few at 3,000' AGL